sensor_id;sensor_type;location;lat;lon;timestamp;P1;durP1;ratioP1;P2;durP2;ratioP2
21430;SDS011;10876;49.038;10.608;2023-03-04T00:00:02;33.13;;;12.07;;
21430;SDS011;10876;49.038;10.608;2023-03-04T00:02:30;31.80;;;12.73;;
21430;SDS011;10876;49.038;10.608;2023-03-04T00:04:57;34.70;;;13.30;;
21430;SDS011;10876;49.038;10.608;2023-03-04T00:07:24;34.72;;;14.88;;
21430;SDS011;10876;49.038;10.608;2023-03-04T00:09:51;31.70;;;13.15;;
21430;SDS011;10876;49.038;10.608;2023-03-04T00:12:19;34.75;;;14.20;;
21430;SDS011;10876;49.038;10.608;2023-03-04T00:14:46;36.08;;;15.27;;
21430;SDS011;10876;49.038;10.608;2023-03-04T00:17:13;29.75;;;14.43;;
21430;SDS011;10876;49.038;10.608;2023-03-04T00:19:40;34.70;;;14.00;;
21430;SDS011;10876;49.038;10.608;2023-03-04T00:22:07;36.03;;;13.70;;
21430;SDS011;10876;49.038;10.608;2023-03-04T00:24:34;38.25;;;14.82;;
21430;SDS011;10876;49.038;10.608;2023-03-04T00:27:01;37.58;;;15.27;;
21430;SDS011;10876;49.038;10.608;2023-03-04T00:29:30;35.80;;;14.30;;
21430;SDS011;10876;49.038;10.608;2023-03-04T00:31:57;29.20;;;12.77;;
21430;SDS011;10876;49.038;10.608;2023-03-04T00:34:24;25.67;;;10.80;;
21430;SDS011;10876;49.038;10.608;2023-03-04T00:36:50;26.15;;;10.50;;
21430;SDS011;10876;49.038;10.608;2023-03-04T00:39:17;27.40;;;11.70;;
21430;SDS011;10876;49.038;10.608;2023-03-04T00:41:45;25.80;;;10.93;;
21430;SDS011;10876;49.038;10.608;2023-03-04T00:44:12;30.20;;;12.18;;
21430;SDS011;10876;49.038;10.608;2023-03-04T00:46:41;32.55;;;11.82;;
21430;SDS011;10876;49.038;10.608;2023-03-04T00:49:08;24.25;;;10.82;;
21430;SDS011;10876;49.038;10.608;2023-03-04T00:51:34;29.80;;;11.73;;
21430;SDS011;10876;49.038;10.608;2023-03-04T00:54:02;25.95;;;10.48;;
21430;SDS011;10876;49.038;10.608;2023-03-04T00:56:29;27.42;;;11.55;;
21430;SDS011;10876;49.038;10.608;2023-03-04T00:58:56;25.58;;;11.15;;
21430;SDS011;10876;49.038;10.608;2023-03-04T01:01:23;26.10;;;10.05;;
21430;SDS011;10876;49.038;10.608;2023-03-04T01:03:51;27.33;;;11.00;;
21430;SDS011;10876;49.038;10.608;2023-03-04T01:06:18;28.48;;;10.98;;
21430;SDS011;10876;49.038;10.608;2023-03-04T01:08:45;31.92;;;12.13;;
21430;SDS011;10876;49.038;10.608;2023-03-04T01:11:12;26.23;;;11.38;;
21430;SDS011;10876;49.038;10.608;2023-03-04T01:13:39;26.42;;;12.50;;
21430;SDS011;10876;49.038;10.608;2023-03-04T01:16:06;22.98;;;10.38;;
21430;SDS011;10876;49.038;10.608;2023-03-04T01:18:35;25.48;;;10.38;;
21430;SDS011;10876;49.038;10.608;2023-03-04T01:21:04;26.27;;;10.63;;
21430;SDS011;10876;49.038;10.608;2023-03-04T01:23:31;28.75;;;10.95;;
21430;SDS011;10876;49.038;10.608;2023-03-04T01:25:58;31.42;;;12.77;;
21430;SDS011;10876;49.038;10.608;2023-03-04T01:28:25;28.85;;;11.70;;
21430;SDS011;10876;49.038;10.608;2023-03-04T01:30:52;34.88;;;13.15;;
21430;SDS011;10876;49.038;10.608;2023-03-04T01:33:19;25.30;;;11.52;;
21430;SDS011;10876;49.038;10.608;2023-03-04T01:35:46;27.10;;;10.88;;
21430;SDS011;10876;49.038;10.608;2023-03-04T01:38:14;30.80;;;12.48;;
21430;SDS011;10876;49.038;10.608;2023-03-04T01:40:41;26.30;;;10.93;;
21430;SDS011;10876;49.038;10.608;2023-03-04T01:43:10;28.50;;;10.80;;
21430;SDS011;10876;49.038;10.608;2023-03-04T01:45:44;27.38;;;11.57;;
21430;SDS011;10876;49.038;10.608;2023-03-04T01:48:12;25.45;;;10.80;;
21430;SDS011;10876;49.038;10.608;2023-03-04T01:50:43;32.00;;;10.45;;
21430;SDS011;10876;49.038;10.608;2023-03-04T01:53:13;26.63;;;11.10;;
21430;SDS011;10876;49.038;10.608;2023-03-04T01:55:46;27.73;;;10.23;;
21430;SDS011;10876;49.038;10.608;2023-03-04T01:58:14;31.17;;;11.38;;
21430;SDS011;10876;49.038;10.608;2023-03-04T02:00:41;27.85;;;10.48;;
21430;SDS011;10876;49.038;10.608;2023-03-04T02:03:09;29.40;;;11.85;;
21430;SDS011;10876;49.038;10.608;2023-03-04T02:05:38;25.25;;;10.70;;
21430;SDS011;10876;49.038;10.608;2023-03-04T02:08:07;25.40;;;10.80;;
21430;SDS011;10876;49.038;10.608;2023-03-04T02:10:37;30.33;;;11.43;;
21430;SDS011;10876;49.038;10.608;2023-03-04T02:13:05;29.13;;;11.32;;
21430;SDS011;10876;49.038;10.608;2023-03-04T02:15:32;29.77;;;11.07;;
21430;SDS011;10876;49.038;10.608;2023-03-04T02:17:59;25.60;;;11.23;;
21430;SDS011;10876;49.038;10.608;2023-03-04T02:20:32;24.08;;;10.25;;
21430;SDS011;10876;49.038;10.608;2023-03-04T02:23:06;20.27;;;9.63;;
21430;SDS011;10876;49.038;10.608;2023-03-04T02:25:41;26.30;;;10.23;;
21430;SDS011;10876;49.038;10.608;2023-03-04T02:28:12;28.20;;;10.23;;
21430;SDS011;10876;49.038;10.608;2023-03-04T02:30:40;27.13;;;10.30;;
21430;SDS011;10876;49.038;10.608;2023-03-04T02:33:09;21.67;;;9.02;;
21430;SDS011;10876;49.038;10.608;2023-03-04T02:35:41;26.60;;;11.20;;
21430;SDS011;10876;49.038;10.608;2023-03-04T02:38:08;24.35;;;10.30;;
21430;SDS011;10876;49.038;10.608;2023-03-04T02:40:36;28.83;;;11.27;;
21430;SDS011;10876;49.038;10.608;2023-03-04T02:43:07;28.38;;;10.23;;
21430;SDS011;10876;49.038;10.608;2023-03-04T02:45:42;26.95;;;11.07;;
21430;SDS011;10876;49.038;10.608;2023-03-04T02:48:10;24.00;;;10.95;;
21430;SDS011;10876;49.038;10.608;2023-03-04T02:50:40;21.75;;;9.57;;
21430;SDS011;10876;49.038;10.608;2023-03-04T02:53:09;24.48;;;9.02;;
21430;SDS011;10876;49.038;10.608;2023-03-04T02:55:36;24.48;;;9.85;;
21430;SDS011;10876;49.038;10.608;2023-03-04T02:58:03;24.70;;;10.95;;
21430;SDS011;10876;49.038;10.608;2023-03-04T03:00:31;26.73;;;11.38;;
21430;SDS011;10876;49.038;10.608;2023-03-04T03:02:59;22.27;;;9.13;;
21430;SDS011;10876;49.038;10.608;2023-03-04T03:05:26;22.58;;;8.77;;
21430;SDS011;10876;49.038;10.608;2023-03-04T03:07:56;24.27;;;9.38;;
21430;SDS011;10876;49.038;10.608;2023-03-04T03:10:23;22.63;;;10.25;;
21430;SDS011;10876;49.038;10.608;2023-03-04T03:12:50;24.00;;;9.45;;
21430;SDS011;10876;49.038;10.608;2023-03-04T03:15:18;24.48;;;9.95;;
21430;SDS011;10876;49.038;10.608;2023-03-04T03:17:45;22.73;;;10.50;;
21430;SDS011;10876;49.038;10.608;2023-03-04T03:20:14;24.75;;;10.77;;
21430;SDS011;10876;49.038;10.608;2023-03-04T03:22:42;19.83;;;9.90;;
21430;SDS011;10876;49.038;10.608;2023-03-04T03:25:09;21.23;;;8.98;;
21430;SDS011;10876;49.038;10.608;2023-03-04T03:27:37;22.00;;;9.68;;
21430;SDS011;10876;49.038;10.608;2023-03-04T03:30:07;19.17;;;8.57;;
21430;SDS011;10876;49.038;10.608;2023-03-04T03:32:36;23.95;;;9.00;;
21430;SDS011;10876;49.038;10.608;2023-03-04T03:35:03;20.27;;;8.85;;
21430;SDS011;10876;49.038;10.608;2023-03-04T03:37:32;15.68;;;8.75;;
21430;SDS011;10876;49.038;10.608;2023-03-04T03:39:59;24.30;;;8.40;;
21430;SDS011;10876;49.038;10.608;2023-03-04T03:42:26;18.65;;;8.32;;
21430;SDS011;10876;49.038;10.608;2023-03-04T03:44:53;25.98;;;9.65;;
21430;SDS011;10876;49.038;10.608;2023-03-04T03:47:21;18.80;;;8.25;;
21430;SDS011;10876;49.038;10.608;2023-03-04T03:49:48;15.43;;;7.32;;
21430;SDS011;10876;49.038;10.608;2023-03-04T03:52:15;22.08;;;9.20;;
21430;SDS011;10876;49.038;10.608;2023-03-04T03:54:43;19.83;;;8.38;;
21430;SDS011;10876;49.038;10.608;2023-03-04T03:57:10;22.95;;;8.48;;
21430;SDS011;10876;49.038;10.608;2023-03-04T03:59:37;21.30;;;9.07;;
21430;SDS011;10876;49.038;10.608;2023-03-04T04:02:04;24.15;;;10.10;;
21430;SDS011;10876;49.038;10.608;2023-03-04T04:04:31;17.88;;;8.05;;
21430;SDS011;10876;49.038;10.608;2023-03-04T04:06:58;16.70;;;7.47;;
21430;SDS011;10876;49.038;10.608;2023-03-04T04:09:25;19.25;;;8.35;;
21430;SDS011;10876;49.038;10.608;2023-03-04T04:11:53;23.30;;;8.52;;
21430;SDS011;10876;49.038;10.608;2023-03-04T04:14:20;17.45;;;8.35;;
21430;SDS011;10876;49.038;10.608;2023-03-04T04:16:47;22.10;;;8.63;;
21430;SDS011;10876;49.038;10.608;2023-03-04T04:19:15;17.88;;;8.93;;
21430;SDS011;10876;49.038;10.608;2023-03-04T04:21:43;23.10;;;9.35;;
21430;SDS011;10876;49.038;10.608;2023-03-04T04:24:10;17.92;;;9.43;;
21430;SDS011;10876;49.038;10.608;2023-03-04T04:26:37;20.67;;;8.68;;
21430;SDS011;10876;49.038;10.608;2023-03-04T04:29:06;22.92;;;9.60;;
21430;SDS011;10876;49.038;10.608;2023-03-04T04:31:34;20.80;;;8.95;;
21430;SDS011;10876;49.038;10.608;2023-03-04T04:34:01;25.10;;;9.38;;
21430;SDS011;10876;49.038;10.608;2023-03-04T04:36:28;20.83;;;8.65;;
21430;SDS011;10876;49.038;10.608;2023-03-04T04:38:56;20.50;;;9.82;;
21430;SDS011;10876;49.038;10.608;2023-03-04T04:41:23;22.10;;;8.13;;
21430;SDS011;10876;49.038;10.608;2023-03-04T04:43:52;23.83;;;9.77;;
21430;SDS011;10876;49.038;10.608;2023-03-04T04:46:21;20.30;;;9.18;;
21430;SDS011;10876;49.038;10.608;2023-03-04T04:48:48;27.40;;;9.93;;
21430;SDS011;10876;49.038;10.608;2023-03-04T04:51:15;20.10;;;8.55;;
21430;SDS011;10876;49.038;10.608;2023-03-04T04:53:42;23.88;;;8.98;;
21430;SDS011;10876;49.038;10.608;2023-03-04T04:56:10;23.88;;;9.95;;
21430;SDS011;10876;49.038;10.608;2023-03-04T04:58:38;24.05;;;11.10;;
21430;SDS011;10876;49.038;10.608;2023-03-04T05:01:05;23.15;;;9.90;;
21430;SDS011;10876;49.038;10.608;2023-03-04T05:03:34;24.13;;;9.88;;
21430;SDS011;10876;49.038;10.608;2023-03-04T05:06:03;25.55;;;9.57;;
21430;SDS011;10876;49.038;10.608;2023-03-04T05:08:31;20.63;;;9.00;;
21430;SDS011;10876;49.038;10.608;2023-03-04T05:10:59;19.75;;;8.43;;
21430;SDS011;10876;49.038;10.608;2023-03-04T05:13:26;19.77;;;8.80;;
21430;SDS011;10876;49.038;10.608;2023-03-04T05:15:53;22.50;;;8.52;;
21430;SDS011;10876;49.038;10.608;2023-03-04T05:18:22;16.85;;;8.02;;
21430;SDS011;10876;49.038;10.608;2023-03-04T05:20:52;21.77;;;8.15;;
21430;SDS011;10876;49.038;10.608;2023-03-04T05:23:21;24.42;;;8.43;;
21430;SDS011;10876;49.038;10.608;2023-03-04T05:25:48;17.90;;;8.52;;
21430;SDS011;10876;49.038;10.608;2023-03-04T05:28:15;21.95;;;9.23;;
21430;SDS011;10876;49.038;10.608;2023-03-04T05:30:43;18.60;;;8.90;;
21430;SDS011;10876;49.038;10.608;2023-03-04T05:33:11;24.20;;;9.70;;
21430;SDS011;10876;49.038;10.608;2023-03-04T05:35:40;19.52;;;9.13;;
21430;SDS011;10876;49.038;10.608;2023-03-04T05:38:10;19.40;;;7.97;;
21430;SDS011;10876;49.038;10.608;2023-03-04T05:40:38;16.95;;;9.05;;
21430;SDS011;10876;49.038;10.608;2023-03-04T05:43:06;16.30;;;7.95;;
21430;SDS011;10876;49.038;10.608;2023-03-04T05:45:33;17.17;;;8.48;;
21430;SDS011;10876;49.038;10.608;2023-03-04T05:48:01;17.50;;;9.10;;
21430;SDS011;10876;49.038;10.608;2023-03-04T05:50:28;17.90;;;8.15;;
21430;SDS011;10876;49.038;10.608;2023-03-04T05:52:56;16.75;;;7.80;;
21430;SDS011;10876;49.038;10.608;2023-03-04T05:55:24;27.58;;;9.88;;
21430;SDS011;10876;49.038;10.608;2023-03-04T05:57:53;32.10;;;13.70;;
21430;SDS011;10876;49.038;10.608;2023-03-04T06:00:20;25.55;;;11.52;;
21430;SDS011;10876;49.038;10.608;2023-03-04T06:02:47;32.55;;;13.15;;
21430;SDS011;10876;49.038;10.608;2023-03-04T06:05:15;21.33;;;10.90;;
21430;SDS011;10876;49.038;10.608;2023-03-04T06:07:42;27.20;;;10.38;;
21430;SDS011;10876;49.038;10.608;2023-03-04T06:10:10;24.65;;;10.55;;
21430;SDS011;10876;49.038;10.608;2023-03-04T06:12:40;23.75;;;10.00;;
21430;SDS011;10876;49.038;10.608;2023-03-04T06:15:07;24.17;;;9.50;;
21430;SDS011;10876;49.038;10.608;2023-03-04T06:17:36;26.52;;;11.23;;
21430;SDS011;10876;49.038;10.608;2023-03-04T06:20:04;24.10;;;10.00;;
21430;SDS011;10876;49.038;10.608;2023-03-04T06:22:32;22.17;;;9.43;;
21430;SDS011;10876;49.038;10.608;2023-03-04T06:24:59;19.15;;;9.30;;
21430;SDS011;10876;49.038;10.608;2023-03-04T06:27:26;24.70;;;9.73;;
21430;SDS011;10876;49.038;10.608;2023-03-04T06:29:55;19.77;;;9.07;;
21430;SDS011;10876;49.038;10.608;2023-03-04T06:32:21;24.10;;;9.10;;
21430;SDS011;10876;49.038;10.608;2023-03-04T06:34:48;23.45;;;8.73;;
21430;SDS011;10876;49.038;10.608;2023-03-04T06:37:15;22.00;;;9.18;;
21430;SDS011;10876;49.038;10.608;2023-03-04T06:39:43;26.33;;;10.75;;
21430;SDS011;10876;49.038;10.608;2023-03-04T06:42:10;23.88;;;10.50;;
21430;SDS011;10876;49.038;10.608;2023-03-04T06:44:37;23.20;;;9.73;;
21430;SDS011;10876;49.038;10.608;2023-03-04T06:47:06;21.45;;;8.95;;
21430;SDS011;10876;49.038;10.608;2023-03-04T06:49:33;19.67;;;8.55;;
21430;SDS011;10876;49.038;10.608;2023-03-04T06:52:00;19.67;;;8.75;;
21430;SDS011;10876;49.038;10.608;2023-03-04T06:54:27;21.60;;;8.68;;
21430;SDS011;10876;49.038;10.608;2023-03-04T06:56:54;21.55;;;9.10;;
21430;SDS011;10876;49.038;10.608;2023-03-04T06:59:21;17.33;;;6.85;;
21430;SDS011;10876;49.038;10.608;2023-03-04T07:01:48;18.52;;;8.05;;
21430;SDS011;10876;49.038;10.608;2023-03-04T07:04:16;29.63;;;12.85;;
21430;SDS011;10876;49.038;10.608;2023-03-04T07:06:43;56.55;;;18.70;;
21430;SDS011;10876;49.038;10.608;2023-03-04T07:09:11;27.77;;;9.90;;
21430;SDS011;10876;49.038;10.608;2023-03-04T07:11:39;23.48;;;8.70;;
21430;SDS011;10876;49.038;10.608;2023-03-04T07:14:06;23.27;;;9.65;;
21430;SDS011;10876;49.038;10.608;2023-03-04T07:16:33;19.85;;;8.15;;
21430;SDS011;10876;49.038;10.608;2023-03-04T07:19:00;20.45;;;9.27;;
21430;SDS011;10876;49.038;10.608;2023-03-04T07:21:29;20.85;;;8.27;;
21430;SDS011;10876;49.038;10.608;2023-03-04T07:23:56;27.58;;;9.57;;
21430;SDS011;10876;49.038;10.608;2023-03-04T07:26:23;26.85;;;10.27;;
21430;SDS011;10876;49.038;10.608;2023-03-04T07:28:50;26.55;;;11.23;;
21430;SDS011;10876;49.038;10.608;2023-03-04T07:31:19;23.70;;;10.15;;
21430;SDS011;10876;49.038;10.608;2023-03-04T07:33:49;19.75;;;8.70;;
21430;SDS011;10876;49.038;10.608;2023-03-04T07:36:16;23.15;;;8.88;;
21430;SDS011;10876;49.038;10.608;2023-03-04T07:38:46;26.95;;;10.23;;
21430;SDS011;10876;49.038;10.608;2023-03-04T07:41:14;22.88;;;10.00;;
21430;SDS011;10876;49.038;10.608;2023-03-04T07:43:42;33.65;;;11.82;;
21430;SDS011;10876;49.038;10.608;2023-03-04T07:46:16;28.27;;;9.75;;
21430;SDS011;10876;49.038;10.608;2023-03-04T07:48:44;24.90;;;9.57;;
21430;SDS011;10876;49.038;10.608;2023-03-04T07:51:12;21.92;;;9.05;;
21430;SDS011;10876;49.038;10.608;2023-03-04T07:53:44;24.48;;;9.65;;
21430;SDS011;10876;49.038;10.608;2023-03-04T07:56:17;21.80;;;8.80;;
21430;SDS011;10876;49.038;10.608;2023-03-04T07:58:45;31.20;;;10.80;;
21430;SDS011;10876;49.038;10.608;2023-03-04T08:01:13;41.15;;;15.10;;
21430;SDS011;10876;49.038;10.608;2023-03-04T08:03:42;35.42;;;13.30;;
21430;SDS011;10876;49.038;10.608;2023-03-04T08:06:10;20.23;;;8.63;;
21430;SDS011;10876;49.038;10.608;2023-03-04T08:08:39;25.48;;;9.20;;
21430;SDS011;10876;49.038;10.608;2023-03-04T08:11:10;35.90;;;12.38;;
21430;SDS011;10876;49.038;10.608;2023-03-04T08:13:38;26.38;;;10.63;;
21430;SDS011;10876;49.038;10.608;2023-03-04T08:16:06;27.90;;;11.65;;
21430;SDS011;10876;49.038;10.608;2023-03-04T08:18:33;24.17;;;9.50;;
21430;SDS011;10876;49.038;10.608;2023-03-04T08:21:00;24.13;;;9.95;;
21430;SDS011;10876;49.038;10.608;2023-03-04T08:23:27;26.27;;;12.52;;
21430;SDS011;10876;49.038;10.608;2023-03-04T08:25:54;23.58;;;9.70;;
21430;SDS011;10876;49.038;10.608;2023-03-04T08:28:22;30.98;;;10.80;;
21430;SDS011;10876;49.038;10.608;2023-03-04T08:30:51;28.02;;;10.85;;
21430;SDS011;10876;49.038;10.608;2023-03-04T08:33:19;23.77;;;10.30;;
21430;SDS011;10876;49.038;10.608;2023-03-04T08:35:46;23.42;;;9.07;;
21430;SDS011;10876;49.038;10.608;2023-03-04T08:59:38;22.70;;;9.68;;
21430;SDS011;10876;49.038;10.608;2023-03-04T09:02:05;24.42;;;9.43;;
21430;SDS011;10876;49.038;10.608;2023-03-04T09:04:32;20.15;;;9.30;;
21430;SDS011;10876;49.038;10.608;2023-03-04T09:07:00;24.20;;;8.93;;
21430;SDS011;10876;49.038;10.608;2023-03-04T09:09:27;30.52;;;9.38;;
21430;SDS011;10876;49.038;10.608;2023-03-04T09:11:54;20.63;;;9.23;;
21430;SDS011;10876;49.038;10.608;2023-03-04T09:14:23;23.20;;;8.57;;
21430;SDS011;10876;49.038;10.608;2023-03-04T09:16:50;27.08;;;10.05;;
21430;SDS011;10876;49.038;10.608;2023-03-04T09:19:17;23.95;;;10.70;;
21430;SDS011;10876;49.038;10.608;2023-03-04T09:21:44;21.98;;;8.73;;
21430;SDS011;10876;49.038;10.608;2023-03-04T09:24:11;18.67;;;8.98;;
21430;SDS011;10876;49.038;10.608;2023-03-04T09:26:38;23.02;;;8.93;;
21430;SDS011;10876;49.038;10.608;2023-03-04T09:29:05;24.05;;;9.50;;
21430;SDS011;10876;49.038;10.608;2023-03-04T09:31:34;33.33;;;12.80;;
21430;SDS011;10876;49.038;10.608;2023-03-04T09:34:02;30.23;;;13.10;;
21430;SDS011;10876;49.038;10.608;2023-03-04T09:36:29;30.13;;;13.52;;
21430;SDS011;10876;49.038;10.608;2023-03-04T09:38:57;24.45;;;11.70;;
21430;SDS011;10876;49.038;10.608;2023-03-04T09:41:25;25.10;;;11.13;;
21430;SDS011;10876;49.038;10.608;2023-03-04T09:44:01;22.02;;;10.65;;
21430;SDS011;10876;49.038;10.608;2023-03-04T09:46:35;20.05;;;7.03;;
21430;SDS011;10876;49.038;10.608;2023-03-04T09:49:08;19.60;;;8.68;;
21430;SDS011;10876;49.038;10.608;2023-03-04T09:51:40;24.38;;;10.23;;
21430;SDS011;10876;49.038;10.608;2023-03-04T09:54:14;22.60;;;9.60;;
21430;SDS011;10876;49.038;10.608;2023-03-04T09:56:48;23.27;;;9.77;;
21430;SDS011;10876;49.038;10.608;2023-03-04T09:59:22;20.42;;;8.80;;
21430;SDS011;10876;49.038;10.608;2023-03-04T10:01:57;18.77;;;8.23;;
21430;SDS011;10876;49.038;10.608;2023-03-04T10:04:29;19.13;;;8.13;;
21430;SDS011;10876;49.038;10.608;2023-03-04T10:07:01;16.50;;;8.00;;
21430;SDS011;10876;49.038;10.608;2023-03-04T10:09:31;18.67;;;8.40;;
21430;SDS011;10876;49.038;10.608;2023-03-04T10:12:04;19.70;;;8.07;;
21430;SDS011;10876;49.038;10.608;2023-03-04T10:14:36;17.92;;;8.02;;
21430;SDS011;10876;49.038;10.608;2023-03-04T10:17:12;16.27;;;7.72;;
21430;SDS011;10876;49.038;10.608;2023-03-04T10:19:51;17.80;;;7.28;;
21430;SDS011;10876;49.038;10.608;2023-03-04T10:22:22;17.65;;;7.60;;
21430;SDS011;10876;49.038;10.608;2023-03-04T10:24:57;19.83;;;7.93;;
21430;SDS011;10876;49.038;10.608;2023-03-04T10:27:31;16.92;;;7.60;;
21430;SDS011;10876;49.038;10.608;2023-03-04T10:29:58;19.08;;;8.98;;
21430;SDS011;10876;49.038;10.608;2023-03-04T10:32:27;17.73;;;7.95;;
21430;SDS011;10876;49.038;10.608;2023-03-04T10:34:54;16.23;;;7.05;;
21430;SDS011;10876;49.038;10.608;2023-03-04T10:37:22;16.75;;;7.75;;
21430;SDS011;10876;49.038;10.608;2023-03-04T10:39:49;19.83;;;7.38;;
21430;SDS011;10876;49.038;10.608;2023-03-04T10:42:25;18.08;;;8.27;;
21430;SDS011;10876;49.038;10.608;2023-03-04T11:01:58;15.82;;;7.38;;
21430;SDS011;10876;49.038;10.608;2023-03-04T11:04:31;15.68;;;7.07;;
21430;SDS011;10876;49.038;10.608;2023-03-04T11:06:59;17.55;;;7.75;;
21430;SDS011;10876;49.038;10.608;2023-03-04T11:09:28;16.52;;;7.13;;
21430;SDS011;10876;49.038;10.608;2023-03-04T11:11:59;15.93;;;7.30;;
21430;SDS011;10876;49.038;10.608;2023-03-04T11:14:29;20.33;;;8.75;;
21430;SDS011;10876;49.038;10.608;2023-03-04T11:17:02;49.03;;;19.08;;
21430;SDS011;10876;49.038;10.608;2023-03-04T11:19:52;21.25;;;9.88;;
21430;SDS011;10876;49.038;10.608;2023-03-04T11:22:24;22.10;;;8.98;;
21430;SDS011;10876;49.038;10.608;2023-03-04T11:24:56;19.33;;;8.27;;
21430;SDS011;10876;49.038;10.608;2023-03-04T11:27:32;19.70;;;7.68;;
21430;SDS011;10876;49.038;10.608;2023-03-04T11:30:12;25.42;;;9.45;;
21430;SDS011;10876;49.038;10.608;2023-03-04T11:32:50;20.08;;;8.40;;
21430;SDS011;10876;49.038;10.608;2023-03-04T11:35:23;16.67;;;7.63;;
21430;SDS011;10876;49.038;10.608;2023-03-04T11:37:57;17.70;;;7.43;;
21430;SDS011;10876;49.038;10.608;2023-03-04T11:40:32;19.63;;;8.20;;
21430;SDS011;10876;49.038;10.608;2023-03-04T11:43:04;16.20;;;7.53;;
21430;SDS011;10876;49.038;10.608;2023-03-04T11:45:42;20.55;;;8.38;;
21430;SDS011;10876;49.038;10.608;2023-03-04T11:48:26;21.90;;;8.85;;
21430;SDS011;10876;49.038;10.608;2023-03-04T11:51:07;16.92;;;7.97;;
21430;SDS011;10876;49.038;10.608;2023-03-04T11:53:43;20.90;;;8.60;;
21430;SDS011;10876;49.038;10.608;2023-03-04T11:56:31;17.33;;;8.20;;
21430;SDS011;10876;49.038;10.608;2023-03-04T12:14:02;21.77;;;8.38;;
21430;SDS011;10876;49.038;10.608;2023-03-04T12:16:46;20.60;;;9.00;;
21430;SDS011;10876;49.038;10.608;2023-03-04T12:19:25;19.67;;;8.23;;
21430;SDS011;10876;49.038;10.608;2023-03-04T12:22:00;18.08;;;8.65;;
21430;SDS011;10876;49.038;10.608;2023-03-04T12:25:01;18.52;;;8.45;;
21430;SDS011;10876;49.038;10.608;2023-03-04T12:27:42;19.92;;;8.80;;
21430;SDS011;10876;49.038;10.608;2023-03-04T12:30:28;22.27;;;9.77;;
21430;SDS011;10876;49.038;10.608;2023-03-04T12:33:07;20.83;;;9.20;;
21430;SDS011;10876;49.038;10.608;2023-03-04T12:35:43;19.50;;;8.68;;
21430;SDS011;10876;49.038;10.608;2023-03-04T12:41:20;20.00;;;9.73;;
21430;SDS011;10876;49.038;10.608;2023-03-04T12:43:54;19.58;;;9.27;;
21430;SDS011;10876;49.038;10.608;2023-03-04T12:46:34;21.00;;;8.82;;
21430;SDS011;10876;49.038;10.608;2023-03-04T12:52:08;21.42;;;9.15;;
21430;SDS011;10876;49.038;10.608;2023-03-04T12:54:44;21.48;;;9.50;;
21430;SDS011;10876;49.038;10.608;2023-03-04T12:57:16;20.67;;;8.73;;
21430;SDS011;10876;49.038;10.608;2023-03-04T12:59:48;21.30;;;9.05;;
21430;SDS011;10876;49.038;10.608;2023-03-04T13:02:35;18.05;;;9.07;;
21430;SDS011;10876;49.038;10.608;2023-03-04T13:05:23;20.02;;;9.30;;
21430;SDS011;10876;49.038;10.608;2023-03-04T13:08:02;20.40;;;8.05;;
21430;SDS011;10876;49.038;10.608;2023-03-04T13:10:37;16.52;;;8.32;;
21430;SDS011;10876;49.038;10.608;2023-03-04T13:30:08;17.38;;;7.50;;
21430;SDS011;10876;49.038;10.608;2023-03-04T13:36:02;16.30;;;7.70;;
21430;SDS011;10876;49.038;10.608;2023-03-04T13:38:34;20.92;;;8.63;;
21430;SDS011;10876;49.038;10.608;2023-03-04T13:41:06;17.48;;;8.05;;
21430;SDS011;10876;49.038;10.608;2023-03-04T14:05:11;14.18;;;8.02;;
21430;SDS011;10876;49.038;10.608;2023-03-04T14:07:38;17.85;;;8.00;;
21430;SDS011;10876;49.038;10.608;2023-03-04T14:10:19;17.52;;;9.13;;
21430;SDS011;10876;49.038;10.608;2023-03-04T14:12:52;17.85;;;8.48;;
21430;SDS011;10876;49.038;10.608;2023-03-04T14:15:22;17.73;;;9.05;;
21430;SDS011;10876;49.038;10.608;2023-03-04T14:17:52;19.30;;;9.30;;
21430;SDS011;10876;49.038;10.608;2023-03-04T14:20:26;16.65;;;8.52;;
21430;SDS011;10876;49.038;10.608;2023-03-04T14:22:55;20.15;;;9.68;;
21430;SDS011;10876;49.038;10.608;2023-03-04T14:25:24;16.60;;;7.93;;
21430;SDS011;10876;49.038;10.608;2023-03-04T14:28:00;19.13;;;9.23;;
21430;SDS011;10876;49.038;10.608;2023-03-04T14:30:29;15.82;;;8.57;;
21430;SDS011;10876;49.038;10.608;2023-03-04T14:33:05;21.52;;;9.38;;
21430;SDS011;10876;49.038;10.608;2023-03-04T14:35:36;20.55;;;9.52;;
21430;SDS011;10876;49.038;10.608;2023-03-04T14:38:04;19.48;;;8.55;;
21430;SDS011;10876;49.038;10.608;2023-03-04T14:40:40;20.38;;;8.55;;
21430;SDS011;10876;49.038;10.608;2023-03-04T14:43:14;19.05;;;9.55;;
21430;SDS011;10876;49.038;10.608;2023-03-04T14:45:44;18.10;;;9.15;;
21430;SDS011;10876;49.038;10.608;2023-03-04T14:48:15;18.75;;;9.35;;
21430;SDS011;10876;49.038;10.608;2023-03-04T14:50:48;18.25;;;9.55;;
21430;SDS011;10876;49.038;10.608;2023-03-04T14:53:16;21.00;;;9.57;;
21430;SDS011;10876;49.038;10.608;2023-03-04T14:55:55;24.55;;;10.80;;
21430;SDS011;10876;49.038;10.608;2023-03-04T14:58:24;39.35;;;15.70;;
21430;SDS011;10876;49.038;10.608;2023-03-04T15:01:03;26.10;;;11.65;;
21430;SDS011;10876;49.038;10.608;2023-03-04T15:03:32;30.52;;;11.20;;
21430;SDS011;10876;49.038;10.608;2023-03-04T15:06:14;21.35;;;9.98;;
21430;SDS011;10876;49.038;10.608;2023-03-04T15:08:43;22.85;;;9.35;;
21430;SDS011;10876;49.038;10.608;2023-03-04T15:11:13;22.17;;;9.02;;
21430;SDS011;10876;49.038;10.608;2023-03-04T15:13:48;18.25;;;9.38;;
21430;SDS011;10876;49.038;10.608;2023-03-04T15:16:18;22.45;;;10.60;;
21430;SDS011;10876;49.038;10.608;2023-03-04T15:18:58;23.75;;;9.93;;
21430;SDS011;10876;49.038;10.608;2023-03-04T15:21:36;17.10;;;8.70;;
21430;SDS011;10876;49.038;10.608;2023-03-04T15:24:05;18.90;;;9.07;;
21430;SDS011;10876;49.038;10.608;2023-03-04T15:26:36;17.73;;;8.80;;
21430;SDS011;10876;49.038;10.608;2023-03-04T15:29:09;20.17;;;9.48;;
21430;SDS011;10876;49.038;10.608;2023-03-04T15:31:38;24.23;;;9.10;;
21430;SDS011;10876;49.038;10.608;2023-03-04T15:34:09;22.77;;;9.13;;
21430;SDS011;10876;49.038;10.608;2023-03-04T15:36:39;19.85;;;9.27;;
21430;SDS011;10876;49.038;10.608;2023-03-04T15:39:08;20.10;;;8.77;;
21430;SDS011;10876;49.038;10.608;2023-03-04T15:41:38;22.75;;;9.57;;
21430;SDS011;10876;49.038;10.608;2023-03-04T15:44:05;23.20;;;9.63;;
21430;SDS011;10876;49.038;10.608;2023-03-04T15:46:32;20.40;;;9.57;;
21430;SDS011;10876;49.038;10.608;2023-03-04T15:48:59;23.02;;;10.48;;
21430;SDS011;10876;49.038;10.608;2023-03-04T15:51:26;25.02;;;10.10;;
21430;SDS011;10876;49.038;10.608;2023-03-04T15:53:55;19.85;;;8.95;;
21430;SDS011;10876;49.038;10.608;2023-03-04T15:56:25;18.85;;;9.43;;
21430;SDS011;10876;49.038;10.608;2023-03-04T15:58:54;19.73;;;8.90;;
21430;SDS011;10876;49.038;10.608;2023-03-04T16:01:23;20.58;;;9.13;;
21430;SDS011;10876;49.038;10.608;2023-03-04T16:03:50;18.15;;;8.10;;
21430;SDS011;10876;49.038;10.608;2023-03-04T16:06:18;19.75;;;9.43;;
21430;SDS011;10876;49.038;10.608;2023-03-04T16:08:48;19.10;;;8.25;;
21430;SDS011;10876;49.038;10.608;2023-03-04T16:11:19;23.85;;;11.00;;